createdAt,value
2023-12-15T00:00:29.692Z,3.12
2023-12-15T00:02:57.383Z,3.14
2023-12-15T00:05:24.449Z,3.16
2023-12-15T00:07:52.128Z,3.15
2023-12-15T00:10:19.300Z,3.22
2023-12-15T00:12:46.066Z,3.22
2023-12-15T00:15:13.645Z,3.12
2023-12-15T00:17:40.776Z,3.07
2023-12-15T00:20:08.955Z,3.13
2023-12-15T00:22:35.706Z,3.26
2023-12-15T00:25:02.478Z,3.17
2023-12-15T00:27:29.176Z,3.13
2023-12-15T00:29:56.055Z,3.28
2023-12-15T00:32:22.979Z,3.26
2023-12-15T00:34:49.779Z,3.25
2023-12-15T00:37:16.504Z,3.35
2023-12-15T00:39:43.211Z,3.35
2023-12-15T00:42:10.323Z,3.48
2023-12-15T00:44:37.077Z,3.28
2023-12-15T00:47:04.126Z,3.24
2023-12-15T00:49:30.997Z,3.20
2023-12-15T00:51:59.033Z,3.28
2023-12-15T00:54:25.731Z,3.34
2023-12-15T00:56:52.398Z,3.34
2023-12-15T00:59:19.310Z,3.38
2023-12-15T01:01:46.034Z,3.37
2023-12-15T01:04:13.068Z,3.29
2023-12-15T01:06:39.748Z,3.28
2023-12-15T01:09:06.815Z,3.37
2023-12-15T01:11:33.638Z,3.47
2023-12-15T01:14:00.736Z,3.47
2023-12-15T01:16:28.655Z,3.44
2023-12-15T01:18:55.539Z,3.42
2023-12-15T01:21:22.290Z,3.47
2023-12-15T01:23:48.984Z,3.40
2023-12-15T01:26:15.727Z,3.42
2023-12-15T01:28:43.276Z,3.51
2023-12-15T01:31:10.194Z,3.40
2023-12-15T01:33:37.063Z,3.50
2023-12-15T01:36:04.003Z,3.55
2023-12-15T01:38:30.797Z,3.60
2023-12-15T01:40:57.560Z,3.61
2023-12-15T01:43:24.318Z,3.69
2023-12-15T01:45:58.303Z,3.77
2023-12-15T01:48:32.145Z,3.81
2023-12-15T01:50:59.328Z,3.82
2023-12-15T01:53:26.082Z,3.88
2023-12-15T01:55:52.797Z,3.86
2023-12-15T01:58:19.820Z,3.84
2023-12-15T02:00:49.709Z,3.90
2023-12-15T02:03:16.476Z,3.93
2023-12-15T02:05:43.283Z,4.02
2023-12-15T02:08:10.064Z,4.06
2023-12-15T02:10:40.093Z,4.09
2023-12-15T02:13:07.728Z,4.08
2023-12-15T02:15:35.035Z,4.07
2023-12-15T02:18:03.476Z,4.09
2023-12-15T02:20:31.854Z,4.12
2023-12-15T02:23:00.525Z,4.13
2023-12-15T02:25:27.596Z,4.17
2023-12-15T02:27:55.097Z,4.15
2023-12-15T02:30:21.941Z,4.12
2023-12-15T02:32:49.181Z,4.15
2023-12-15T02:35:17.998Z,4.15
2023-12-15T02:37:44.764Z,4.10
2023-12-15T02:40:11.732Z,4.12
2023-12-15T02:42:38.440Z,4.21
2023-12-15T02:45:05.694Z,4.29
2023-12-15T02:47:32.667Z,4.23
2023-12-15T02:50:00.045Z,4.36
2023-12-15T02:52:26.746Z,4.38
2023-12-15T02:54:53.515Z,4.29
2023-12-15T02:57:20.251Z,4.29
2023-12-15T02:59:46.949Z,4.31
2023-12-15T03:02:13.820Z,4.25
2023-12-15T03:04:40.504Z,4.29
2023-12-15T03:07:07.260Z,4.27
2023-12-15T03:09:34.010Z,4.30
2023-12-15T03:12:00.666Z,4.29
2023-12-15T03:14:27.456Z,4.34
2023-12-15T03:16:55.369Z,4.35
2023-12-15T03:19:22.062Z,4.38
2023-12-15T03:21:48.803Z,4.34
2023-12-15T03:24:15.529Z,4.29
2023-12-15T03:26:42.206Z,4.30
2023-12-15T03:29:09.106Z,4.33
2023-12-15T03:31:38.503Z,4.31
2023-12-15T03:34:05.229Z,4.38
2023-12-15T03:36:36.814Z,4.42
2023-12-15T03:39:04.325Z,4.41
2023-12-15T03:41:31.307Z,4.44
2023-12-15T03:43:58.141Z,4.39
2023-12-15T03:46:24.905Z,4.38
2023-12-15T03:48:51.736Z,4.36
2023-12-15T03:51:18.733Z,4.41
2023-12-15T03:53:45.455Z,4.50
2023-12-15T03:56:12.277Z,4.38
2023-12-15T03:58:38.982Z,4.30
2023-12-15T04:01:05.858Z,4.34
2023-12-15T04:03:32.752Z,4.40
2023-12-15T04:06:01.606Z,4.43
2023-12-15T04:08:29.257Z,4.47
2023-12-15T04:10:57.371Z,4.52
2023-12-15T04:13:24.445Z,4.54
2023-12-15T04:15:51.148Z,4.55
2023-12-15T04:18:18.080Z,4.54
2023-12-15T04:20:45.033Z,4.55
2023-12-15T04:23:11.804Z,4.59
2023-12-15T04:25:39.453Z,4.52
2023-12-15T04:28:06.098Z,4.58
2023-12-15T04:30:32.822Z,4.58
2023-12-15T04:32:59.618Z,4.59
2023-12-15T04:35:26.382Z,4.68
2023-12-15T04:37:53.784Z,4.68
2023-12-15T04:40:20.889Z,4.69
2023-12-15T04:42:47.617Z,4.67
2023-12-15T04:45:15.087Z,4.74
2023-12-15T04:47:42.087Z,4.67
2023-12-15T04:50:09.636Z,4.69
2023-12-15T04:52:36.384Z,4.70
2023-12-15T04:55:03.624Z,4.77
2023-12-15T04:57:30.313Z,4.77
2023-12-15T04:59:56.979Z,4.86
2023-12-15T05:02:25.522Z,4.83
2023-12-15T05:04:52.283Z,4.82
2023-12-15T05:07:19.142Z,4.86
2023-12-15T05:09:48.236Z,4.91
2023-12-15T05:12:15.111Z,4.91
2023-12-15T05:14:41.942Z,4.95
2023-12-15T05:17:09.533Z,5.02
2023-12-15T05:19:36.269Z,4.98
2023-12-15T05:22:03.055Z,5.08
2023-12-15T05:24:33.130Z,5.07
2023-12-15T05:27:00.192Z,5.11
2023-12-15T05:29:26.924Z,5.16
2023-12-15T05:31:53.707Z,5.11
2023-12-15T05:34:20.717Z,5.14
2023-12-15T05:36:50.937Z,5.13
2023-12-15T05:39:17.614Z,5.12
2023-12-15T05:41:45.463Z,5.10
2023-12-15T05:44:12.725Z,5.16
2023-12-15T05:46:43.374Z,5.18
2023-12-15T05:49:12.088Z,5.11
2023-12-15T05:51:39.945Z,5.17
2023-12-15T05:54:07.334Z,5.16
2023-12-15T05:56:34.157Z,5.22
2023-12-15T05:59:01.054Z,5.30
2023-12-15T06:01:27.981Z,5.30
2023-12-15T06:03:54.687Z,5.21
2023-12-15T06:06:21.576Z,5.35
2023-12-15T06:08:49.360Z,5.29
2023-12-15T06:11:16.187Z,5.29
2023-12-15T06:13:46.119Z,5.30
2023-12-15T06:16:20.391Z,5.25
2023-12-15T06:18:48.301Z,5.28
2023-12-15T06:21:22.711Z,5.38
2023-12-15T06:23:50.084Z,5.31
2023-12-15T06:26:24.294Z,5.39
2023-12-15T06:28:52.395Z,5.33
2023-12-15T06:31:19.306Z,5.32
2023-12-15T06:33:46.400Z,5.33
2023-12-15T06:36:13.502Z,5.33
2023-12-15T06:38:44.254Z,5.37
2023-12-15T06:41:11.763Z,5.38
2023-12-15T06:43:42.832Z,5.36
2023-12-15T06:46:09.992Z,5.44
2023-12-15T06:48:37.139Z,5.43
2023-12-15T06:51:05.776Z,5.44
2023-12-15T06:53:32.528Z,5.48
2023-12-15T06:56:00.780Z,5.45
2023-12-15T06:58:27.769Z,5.48
2023-12-15T07:00:54.687Z,5.56
2023-12-15T07:03:21.698Z,5.56
2023-12-15T07:05:48.723Z,5.54
2023-12-15T07:08:15.736Z,5.51
2023-12-15T07:10:43.044Z,5.56
2023-12-15T07:13:09.779Z,5.57
2023-12-15T07:15:36.970Z,5.53
2023-12-15T07:18:04.013Z,5.51
2023-12-15T07:20:30.931Z,5.57
2023-12-15T07:22:57.770Z,5.60
2023-12-15T07:25:27.208Z,5.59
2023-12-15T07:27:54.822Z,5.62
2023-12-15T07:30:22.687Z,5.67
2023-12-15T07:32:50.263Z,5.61
2023-12-15T07:35:25.465Z,5.59
2023-12-15T07:37:58.822Z,5.61
2023-12-15T07:40:25.594Z,5.63
2023-12-15T07:42:52.246Z,5.71
2023-12-15T07:45:18.925Z,5.66
2023-12-15T07:47:45.826Z,5.67
2023-12-15T07:50:12.838Z,5.65
2023-12-15T07:52:39.657Z,5.72
2023-12-15T07:55:06.929Z,5.77
2023-12-15T07:57:34.844Z,5.79
2023-12-15T08:00:01.670Z,5.91
2023-12-15T08:02:28.469Z,5.93
2023-12-15T08:04:56.853Z,5.80
2023-12-15T08:07:23.717Z,5.89
2023-12-15T08:09:50.450Z,5.78
2023-12-15T08:12:17.164Z,5.80
2023-12-15T08:14:43.937Z,5.90
2023-12-15T08:17:10.713Z,5.84
2023-12-15T08:19:37.709Z,5.84
2023-12-15T08:22:04.843Z,5.84
2023-12-15T08:24:31.551Z,5.85
2023-12-15T08:26:58.896Z,5.84
2023-12-15T08:29:25.718Z,5.87
2023-12-15T08:31:52.520Z,5.89
2023-12-15T08:34:19.538Z,5.91
2023-12-15T08:36:46.397Z,5.98
2023-12-15T08:39:17.569Z,5.93
2023-12-15T08:41:45.764Z,6.02
2023-12-15T08:44:23.549Z,6.16
2023-12-15T08:46:55.508Z,6.17
2023-12-15T08:49:23.697Z,6.11
2023-12-15T08:51:51.265Z,6.09
2023-12-15T08:54:18.342Z,6.07
2023-12-15T08:56:45.673Z,6.12
2023-12-15T08:59:12.648Z,6.15
2023-12-15T09:01:39.798Z,6.20
2023-12-15T09:04:06.536Z,6.34
2023-12-15T09:06:37.654Z,6.35
2023-12-15T09:09:09.749Z,6.38
2023-12-15T09:11:36.831Z,6.42
2023-12-15T09:14:03.840Z,6.41
2023-12-15T09:16:30.864Z,6.44
2023-12-15T09:18:57.706Z,6.47
2023-12-15T09:21:25.159Z,6.51
2023-12-15T09:23:54.457Z,6.57
2023-12-15T09:26:21.329Z,6.59
2023-12-15T09:28:48.177Z,6.61
2023-12-15T09:31:15.389Z,6.73
2023-12-15T09:33:42.230Z,6.69
2023-12-15T09:36:09.571Z,6.79
2023-12-15T09:38:36.326Z,6.78
2023-12-15T09:41:03.176Z,6.83
2023-12-15T09:43:30.182Z,6.91
2023-12-15T09:45:59.846Z,6.97
2023-12-15T09:48:30.509Z,7.02
2023-12-15T09:51:03.997Z,7.03
2023-12-15T09:53:36.365Z,7.10
2023-12-15T09:56:03.756Z,7.14
2023-12-15T09:58:31.576Z,7.14
2023-12-15T10:00:58.791Z,7.20
2023-12-15T10:03:25.681Z,7.19
2023-12-15T10:05:52.482Z,7.20
2023-12-15T10:08:24.587Z,7.21
2023-12-15T10:10:52.276Z,7.26
2023-12-15T10:13:19.260Z,7.20
2023-12-15T10:15:51.865Z,7.21
2023-12-15T10:18:26.310Z,7.30
2023-12-15T10:20:59.649Z,7.31
2023-12-15T10:23:28.666Z,7.36
2023-12-15T10:26:07.212Z,7.47
2023-12-15T10:28:41.438Z,7.57
2023-12-15T10:31:11.162Z,7.58
2023-12-15T10:33:38.015Z,7.59
2023-12-15T10:36:08.521Z,7.60
2023-12-15T10:38:36.407Z,7.62
2023-12-15T10:41:04.645Z,7.65
2023-12-15T10:43:32.829Z,7.72
2023-12-15T10:46:04.310Z,7.69
2023-12-15T10:48:34.265Z,7.76
2023-12-15T10:51:03.149Z,7.83
2023-12-15T10:53:30.398Z,7.87
2023-12-15T10:55:57.178Z,7.78
2023-12-15T10:58:24.160Z,7.81
2023-12-15T11:00:51.469Z,7.83
2023-12-15T11:03:18.738Z,7.86
2023-12-15T11:05:46.415Z,7.86
2023-12-15T11:08:14.476Z,7.82
2023-12-15T11:10:42.581Z,7.84
2023-12-15T11:13:48.681Z,7.86
2023-12-15T11:16:18.426Z,7.92
2023-12-15T11:18:45.658Z,7.94
2023-12-15T11:21:13.050Z,7.94
2023-12-15T11:24:09.539Z,7.99
2023-12-15T11:26:42.387Z,8.05
2023-12-15T11:29:19.922Z,8.07
2023-12-15T11:31:46.718Z,8.08
2023-12-15T11:34:43.580Z,8.11
2023-12-15T11:37:12.883Z,8.16
2023-12-15T11:39:40.631Z,8.18
2023-12-15T11:42:09.953Z,8.15
2023-12-15T11:44:37.910Z,8.11
2023-12-15T11:47:05.263Z,8.14
2023-12-15T11:49:33.061Z,8.10
2023-12-15T11:52:00.112Z,8.12
2023-12-15T11:54:26.865Z,8.11
2023-12-15T11:56:54.198Z,8.15
2023-12-15T11:59:20.925Z,8.20
2023-12-15T12:01:49.761Z,8.18
2023-12-15T12:04:20.151Z,8.23
2023-12-15T12:06:47.907Z,8.20
2023-12-15T12:09:14.671Z,8.25
2023-12-15T12:11:41.631Z,8.22
2023-12-15T12:14:11.896Z,8.26
2023-12-15T12:16:38.646Z,8.32
2023-12-15T12:19:05.504Z,8.31
2023-12-15T12:21:33.226Z,8.31
2023-12-15T12:24:01.505Z,8.27
2023-12-15T12:26:29.508Z,8.36
2023-12-15T12:28:59.497Z,8.29
2023-12-15T12:31:28.436Z,8.25
2023-12-15T12:33:55.312Z,8.25
2023-12-15T12:36:22.590Z,8.24
2023-12-15T12:38:50.565Z,8.24
2023-12-15T12:41:18.039Z,8.23
2023-12-15T12:43:46.780Z,8.22
2023-12-15T12:46:14.387Z,8.22
2023-12-15T12:48:44.540Z,8.20
2023-12-15T12:51:11.602Z,8.25
2023-12-15T12:53:38.445Z,8.20
2023-12-15T12:56:06.745Z,8.23
2023-12-15T12:58:34.408Z,8.24
2023-12-15T13:01:01.157Z,8.23
2023-12-15T13:03:27.962Z,8.25
2023-12-15T13:05:56.586Z,8.23
2023-12-15T13:08:23.561Z,8.29
2023-12-15T13:10:50.900Z,8.33
2023-12-15T13:13:17.761Z,8.38
2023-12-15T13:15:44.415Z,8.38
2023-12-15T13:18:11.813Z,8.39
2023-12-15T13:20:40.077Z,8.37
2023-12-15T13:23:10.718Z,8.40
2023-12-15T13:25:37.758Z,8.37
2023-12-15T13:28:06.787Z,8.45
2023-12-15T13:30:33.622Z,8.36
2023-12-15T13:33:00.581Z,8.34
2023-12-15T13:35:27.394Z,8.35
2023-12-15T13:37:55.027Z,8.35
2023-12-15T13:40:22.181Z,8.29
2023-12-15T13:42:49.101Z,8.27
2023-12-15T13:45:15.940Z,8.27
2023-12-15T13:47:43.822Z,8.27
2023-12-15T13:50:10.946Z,8.23
2023-12-15T13:52:38.687Z,8.17
2023-12-15T13:55:06.197Z,8.13
2023-12-15T13:57:33.265Z,8.20
2023-12-15T14:00:00.011Z,8.25
2023-12-15T14:02:28.090Z,8.20
2023-12-15T14:04:55.331Z,8.20
2023-12-15T14:07:22.293Z,8.19
2023-12-15T14:09:49.527Z,8.18
2023-12-15T14:12:17.010Z,8.14
2023-12-15T14:14:45.205Z,8.13
2023-12-15T14:17:12.090Z,8.16
2023-12-15T14:19:38.862Z,8.23
2023-12-15T14:22:08.218Z,8.19
2023-12-15T14:24:34.954Z,8.21
2023-12-15T14:27:04.271Z,8.22
2023-12-15T14:29:32.457Z,8.22
2023-12-15T14:31:59.800Z,8.21
2023-12-15T14:34:27.124Z,8.23
2023-12-15T14:36:53.949Z,8.29
2023-12-15T14:39:20.810Z,8.27
2023-12-15T14:41:47.617Z,8.23
2023-12-15T14:44:14.487Z,8.21
2023-12-15T14:46:41.469Z,8.21
2023-12-15T14:49:08.689Z,8.25
2023-12-15T14:51:35.463Z,8.21
2023-12-15T14:54:03.466Z,8.09
2023-12-15T14:56:30.396Z,8.11
2023-12-15T14:58:57.131Z,8.11
2023-12-15T15:01:23.983Z,8.01
2023-12-15T15:03:51.240Z,8.00
2023-12-15T15:06:27.075Z,8.04
2023-12-15T15:09:01.195Z,8.11
2023-12-15T15:11:29.336Z,8.04
2023-12-15T15:13:56.772Z,8.02
2023-12-15T15:16:23.535Z,7.96
2023-12-15T15:18:50.641Z,7.90
2023-12-15T15:21:17.985Z,7.91
2023-12-15T15:23:44.749Z,7.91
2023-12-15T15:26:11.575Z,7.86
2023-12-15T15:28:38.861Z,7.79
2023-12-15T15:31:06.526Z,7.75
2023-12-15T15:33:33.733Z,7.67
2023-12-15T15:36:01.377Z,7.62
2023-12-15T15:38:28.191Z,7.68
2023-12-15T15:40:55.343Z,7.73
2023-12-15T15:43:22.790Z,7.78
2023-12-15T15:45:50.704Z,7.78
2023-12-15T15:48:17.768Z,7.79
2023-12-15T15:50:46.381Z,7.80
2023-12-15T15:53:13.486Z,7.81
2023-12-15T15:55:40.645Z,7.84
2023-12-15T15:58:07.625Z,7.87
2023-12-15T16:00:35.164Z,7.92
2023-12-15T16:03:02.791Z,7.92
2023-12-15T16:05:34.456Z,7.92
2023-12-15T16:08:02.119Z,7.99
2023-12-15T16:10:28.923Z,7.92
2023-12-15T16:13:11.108Z,8.00
2023-12-15T16:15:37.963Z,7.97
2023-12-15T16:18:05.140Z,7.95
2023-12-15T16:20:31.993Z,7.98
2023-12-15T16:22:59.279Z,7.99
2023-12-15T16:25:26.307Z,7.95
2023-12-15T16:27:53.026Z,7.96
2023-12-15T16:30:20.720Z,7.97
2023-12-15T16:32:48.619Z,7.97
2023-12-15T16:35:15.405Z,7.98
2023-12-15T16:37:42.768Z,8.00
2023-12-15T16:40:10.108Z,8.01
2023-12-15T16:42:44.753Z,7.97
2023-12-15T16:45:13.084Z,7.98
2023-12-15T16:47:44.522Z,8.00
2023-12-15T16:50:12.631Z,7.98
2023-12-15T16:52:40.752Z,7.95
2023-12-15T16:55:09.509Z,7.90
2023-12-15T16:57:37.605Z,7.88
2023-12-15T17:00:05.158Z,7.88
2023-12-15T17:02:32.200Z,7.89
2023-12-15T17:05:01.517Z,7.88
2023-12-15T17:07:28.361Z,7.86
2023-12-15T17:09:55.732Z,7.85
2023-12-15T17:12:22.532Z,7.93
2023-12-15T17:14:50.035Z,7.92
2023-12-15T17:17:17.044Z,7.93
2023-12-15T17:19:44.043Z,7.88
2023-12-15T17:22:11.611Z,7.87
2023-12-15T17:24:39.492Z,7.85
2023-12-15T17:27:06.437Z,7.83
2023-12-15T17:29:39.957Z,7.85
2023-12-15T17:32:13.642Z,7.86
2023-12-15T17:34:40.518Z,7.88
2023-12-15T17:37:07.313Z,7.82
2023-12-15T17:39:34.046Z,7.82
2023-12-15T17:42:00.855Z,7.80
2023-12-15T17:44:27.632Z,7.83
2023-12-15T17:46:54.377Z,7.79
2023-12-15T17:49:21.606Z,7.78
2023-12-15T17:51:48.413Z,7.74
2023-12-15T17:54:15.792Z,7.73
2023-12-15T17:56:44.008Z,7.65
2023-12-15T17:59:11.345Z,7.67
2023-12-15T18:01:38.364Z,7.68
2023-12-15T18:04:05.570Z,7.68
2023-12-15T18:06:33.266Z,7.69
2023-12-15T18:09:02.217Z,7.65
2023-12-15T18:11:30.519Z,7.68
2023-12-15T18:13:57.875Z,7.71
2023-12-15T18:16:25.302Z,7.82
2023-12-15T18:19:26.741Z,7.79
2023-12-15T18:22:16.878Z,7.83
2023-12-15T18:25:46.493Z,7.76
2023-12-15T18:28:10.158Z,7.79
2023-12-15T18:30:43.713Z,7.82
2023-12-15T18:33:10.771Z,7.72
2023-12-15T18:35:38.270Z,7.73
2023-12-15T18:38:05.863Z,7.79
2023-12-15T18:40:33.931Z,7.75
2023-12-15T18:43:01.638Z,7.79
2023-12-15T18:46:27.630Z,7.80
2023-12-15T18:49:09.296Z,7.87
2023-12-15T18:51:37.156Z,7.84
2023-12-15T18:54:04.467Z,7.83
2023-12-15T18:56:31.500Z,7.82
2023-12-15T18:58:59.048Z,7.85
2023-12-15T19:01:31.916Z,7.87
2023-12-15T19:03:59.391Z,7.82
2023-12-15T19:06:26.772Z,7.82
2023-12-15T19:08:53.908Z,7.79
2023-12-15T19:11:29.774Z,7.80
2023-12-15T19:13:57.887Z,7.83
2023-12-15T19:16:25.146Z,7.81
2023-12-15T19:18:52.641Z,7.83
2023-12-15T19:21:20.264Z,7.85
2023-12-15T19:23:50.285Z,7.90
2023-12-15T19:26:21.934Z,7.93
2023-12-15T19:28:58.862Z,7.91
2023-12-15T19:31:25.883Z,7.92
2023-12-15T19:33:56.742Z,7.92
2023-12-15T19:36:23.674Z,7.92
2023-12-15T19:38:50.666Z,7.90
2023-12-15T19:41:19.414Z,7.93
2023-12-15T19:43:47.385Z,7.98
2023-12-15T19:46:21.840Z,7.94
2023-12-15T19:48:48.865Z,7.97
2023-12-15T19:51:22.657Z,7.97
2023-12-15T19:53:51.133Z,7.94
2023-12-15T19:56:25.269Z,7.96
2023-12-15T19:58:53.009Z,7.95
2023-12-15T20:01:31.005Z,7.92
2023-12-15T20:04:00.893Z,7.94
2023-12-15T20:06:31.163Z,7.92
2023-12-15T20:09:05.381Z,8.00
2023-12-15T20:11:37.900Z,7.98
2023-12-15T20:14:07.187Z,7.99
2023-12-15T20:16:35.847Z,8.00
2023-12-15T20:19:03.460Z,7.97
2023-12-15T20:21:31.446Z,7.95
2023-12-15T20:23:59.416Z,7.98
2023-12-15T20:26:26.595Z,8.03
2023-12-15T20:28:54.500Z,7.98
2023-12-15T20:31:23.040Z,7.99
2023-12-15T20:33:50.333Z,7.94
2023-12-15T20:36:19.229Z,7.88
2023-12-15T20:38:46.255Z,7.84
2023-12-15T20:41:18.354Z,7.73
2023-12-15T20:43:45.214Z,7.72
2023-12-15T20:46:12.043Z,7.75
2023-12-15T20:48:39.099Z,7.77
2023-12-15T20:51:06.585Z,7.78
2023-12-15T20:53:33.423Z,7.76
2023-12-15T20:56:00.543Z,7.76
2023-12-15T20:58:27.529Z,7.72
2023-12-15T21:00:54.510Z,7.70
2023-12-15T21:03:22.027Z,7.68
2023-12-15T21:05:49.557Z,7.75
2023-12-15T21:08:16.415Z,7.76
2023-12-15T21:10:43.732Z,7.76
2023-12-15T21:13:12.555Z,7.73
2023-12-15T21:15:42.934Z,7.65
2023-12-15T21:18:12.347Z,7.65
2023-12-15T21:20:41.178Z,7.66
2023-12-15T21:23:08.025Z,7.71
2023-12-15T21:25:34.794Z,7.72
2023-12-15T21:28:02.512Z,7.79
2023-12-15T21:30:29.457Z,7.81
2023-12-15T21:32:56.683Z,7.85
2023-12-15T21:35:24.344Z,7.90
2023-12-15T21:37:51.406Z,7.95
2023-12-15T21:40:19.224Z,7.98
2023-12-15T21:42:47.633Z,7.89
2023-12-15T21:45:14.544Z,7.89
2023-12-15T21:47:41.825Z,7.92
2023-12-15T21:50:11.240Z,7.88
2023-12-15T21:52:39.234Z,7.88
2023-12-15T21:55:06.897Z,7.88
2023-12-15T21:57:34.358Z,7.78
2023-12-15T22:00:01.044Z,7.92
2023-12-15T22:02:27.816Z,7.84
2023-12-15T22:04:54.846Z,7.83
2023-12-15T22:07:22.117Z,7.74
2023-12-15T22:09:50.512Z,7.81
2023-12-15T22:12:18.355Z,7.75
2023-12-15T22:14:45.991Z,7.74
2023-12-15T22:17:14.247Z,7.75
2023-12-15T22:19:41.764Z,7.74
2023-12-15T22:22:08.743Z,7.77
2023-12-15T22:24:35.844Z,7.75
2023-12-15T22:27:03.620Z,7.75
2023-12-15T22:29:31.570Z,7.81
2023-12-15T22:31:58.764Z,7.71
2023-12-15T22:34:25.703Z,7.69
2023-12-15T22:36:52.799Z,7.70
2023-12-15T22:39:19.537Z,7.73
2023-12-15T22:41:46.469Z,7.72
2023-12-15T22:44:13.440Z,7.71
2023-12-15T22:46:44.207Z,7.69
2023-12-15T22:49:11.221Z,7.73
2023-12-15T22:51:42.589Z,7.73
2023-12-15T22:54:13.653Z,7.65
2023-12-15T22:56:44.397Z,7.70
2023-12-15T22:59:14.701Z,7.74
2023-12-15T23:01:41.858Z,7.64
2023-12-15T23:04:08.963Z,7.64
2023-12-15T23:06:36.285Z,7.68
2023-12-15T23:09:03.576Z,7.74
2023-12-15T23:11:31.064Z,7.73
2023-12-15T23:13:57.792Z,7.76
2023-12-15T23:16:24.653Z,7.76
2023-12-15T23:18:51.619Z,7.72
2023-12-15T23:21:26.301Z,7.73
2023-12-15T23:23:56.206Z,7.73
2023-12-15T23:26:24.563Z,7.75
2023-12-15T23:28:52.088Z,7.70
2023-12-15T23:31:19.132Z,7.72
2023-12-15T23:33:46.074Z,7.67
2023-12-15T23:36:14.419Z,7.66
2023-12-15T23:38:41.609Z,7.73
2023-12-15T23:41:09.136Z,7.76
2023-12-15T23:43:35.977Z,7.73
2023-12-15T23:46:02.873Z,7.76
2023-12-15T23:48:29.959Z,7.72
2023-12-15T23:50:56.757Z,7.75
2023-12-15T23:53:24.152Z,7.76
2023-12-15T23:55:51.042Z,7.73
2023-12-15T23:58:17.996Z,7.72
